Time;durP1;ratioP1;P1;durP2;ratioP2;P2;SDS_P1;SDS_P2;PMS_P1;PMS_P2;Temp;Humidity;BMP_temperature;BMP_pressure;BME280_temperature;BME280_humidity;BME280_pressure;Samples;Min_cycle;Max_cycle;Signal;HPM_P1;HPM_P2
2022/08/20 00:00:56;;;;;;;5.47;4.70;;;;;;;27.10;44.63;94577.63;5042823;28;20734;-55
2022/08/20 00:03:31;;;;;;;5.93;4.82;;;;;;;27.14;44.89;94577.28;5061870;28;20062;-54
2022/08/20 00:06:03;;;;;;;7.18;4.75;;;;;;;26.87;44.85;94554.84;5059070;28;20087;-54
2022/08/20 00:08:29;;;;;;;6.88;5.10;;;;;;;27.03;44.82;94572.84;5032175;28;20029;-54
2022/08/20 00:10:54;;;;;;;6.07;5.13;;;;;;;27.05;45.22;94578.50;5058042;28;20039;-54
2022/08/20 00:13:27;;;;;;;6.32;4.45;;;;;;;27.05;45.37;94569.56;5051023;28;20045;-55
2022/08/20 00:15:53;;;;;;;8.20;5.13;;;;;;;26.76;44.91;94520.88;5032265;28;20028;-54
2022/08/20 00:18:19;;;;;;;6.47;5.03;;;;;;;27.12;45.33;94591.53;5061191;28;20051;-54
2022/08/20 00:20:46;;;;;;;6.50;5.57;;;;;;;27.07;45.44;94589.69;5060488;28;20535;-55
2022/08/20 00:23:11;;;;;;;8.15;5.07;;;;;;;27.01;44.91;94569.94;5060589;28;20044;-55
2022/08/20 00:25:37;;;;;;;8.25;4.88;;;;;;;26.93;45.11;94563.69;5061234;28;20036;-54
2022/08/20 00:28:03;;;;;;;5.93;4.82;;;;;;;27.03;45.35;94575.59;5057783;28;20056;-54
2022/08/20 00:30:28;;;;;;;6.75;5.20;;;;;;;26.95;45.29;94566.63;5059291;28;20951;-55
2022/08/20 00:32:57;;;;;;;6.68;4.78;;;;;;;26.79;45.40;94540.41;5059320;28;20358;-55
2022/08/20 00:35:24;;;;;;;8.65;5.40;;;;;;;27.07;45.37;94562.28;5060397;28;20060;-54
2022/08/20 00:37:49;;;;;;;6.47;5.13;;;;;;;27.02;45.23;94565.91;5059186;28;20075;-54
2022/08/20 00:40:18;;;;;;;9.02;5.60;;;;;;;26.42;45.64;94490.25;5060176;28;20060;-54
2022/08/20 00:42:46;;;;;;;6.20;4.90;;;;;;;27.03;45.21;94572.84;5060226;28;20028;-55
2022/08/20 00:45:11;;;;;;;10.32;4.97;;;;;;;26.91;45.10;94555.28;5060229;28;20037;-54
2022/08/20 00:47:40;;;;;;;6.97;5.05;;;;;;;26.99;45.56;94569.72;5060211;28;20504;-54
2022/08/20 00:50:07;;;;;;;9.50;5.25;;;;;;;27.00;45.63;94565.00;5043721;28;20036;-54
2022/08/20 00:52:32;;;;;;;7.57;5.15;;;;;;;26.57;45.82;94487.56;5055057;28;20035;-54
2022/08/20 00:54:58;;;;;;;6.68;5.43;;;;;;;26.99;45.72;94556.03;5042246;28;20606;-54
2022/08/20 00:57:25;;;;;;;7.20;5.47;;;;;;;27.02;45.59;94563.16;5026407;28;20510;-54
2022/08/20 00:59:50;;;;;;;7.00;5.15;;;;;;;26.85;45.73;94546.47;5060197;28;20127;-54
2022/08/20 01:02:16;;;;;;;7.07;5.10;;;;;;;26.98;45.10;94538.13;5060155;28;20155;-54
2022/08/20 01:04:46;;;;;;;7.90;5.20;;;;;;;26.93;46.00;94530.78;5042394;28;20037;-54
2022/08/20 01:07:11;;;;;;;;;;;;;;;26.40;45.90;94462.66;5040870;28;20043;-54
2022/08/20 01:09:37;;;;;;;7.28;4.90;;;;;;;26.82;45.66;94520.13;5060392;28;19920;-54
2022/08/20 01:12:03;;;;;;;7.93;4.93;;;;;;;27.00;45.98;94541.06;5025697;28;20033;-54
2022/08/20 01:17:03;;;;;;;5.63;4.88;;;;;;;26.54;45.91;94466.72;5055635;28;20078;-54
2022/08/20 01:19:32;;;;;;;8.30;5.30;;;;;;;26.95;46.10;94533.75;5016822;28;20052;-54
2022/08/20 01:21:59;;;;;;;6.72;4.85;;;;;;;27.02;45.68;94530.25;5041542;28;20336;-54
2022/08/20 01:24:35;;;;;;;10.40;6.10;;;;;;;26.73;45.52;94494.56;5026639;28;20035;-54
2022/08/20 01:27:02;;;;;;;7.30;5.35;;;;;;;26.39;46.10;94466.69;5024701;28;20032;-54
2022/08/20 01:29:29;;;;;;;7.32;5.30;;;;;;;26.88;45.82;94517.97;5030597;28;20056;-54
2022/08/20 01:32:00;;;;;;;8.73;5.30;;;;;;;27.00;45.66;94524.59;5041396;28;20118;-54
2022/08/20 01:34:26;;;;;;;8.07;5.45;;;;;;;26.73;46.40;94516.47;5060612;28;20065;-54
2022/08/20 01:36:52;;;;;;;7.13;5.25;;;;;;;26.61;46.07;94515.34;5058690;28;20557;-54
2022/08/20 01:39:32;;;;;;;6.72;4.95;;;;;;;26.74;46.21;94529.63;5042563;28;20035;-54
2022/08/20 01:42:18;;;;;;;7.10;5.40;;;;;;;26.64;46.68;94527.94;5059317;28;20437;-55
2022/08/20 01:44:44;;;;;;;8.85;5.18;;;;;;;26.67;46.44;94524.13;5059491;28;20037;-54
2022/08/20 01:47:14;;;;;;;8.85;5.78;;;;;;;26.48;46.18;94490.81;5040116;28;20047;-54
2022/08/20 01:49:42;;;;;;;9.45;6.07;;;;;;;26.53;46.55;94514.56;5061525;28;20041;-55
2022/08/20 01:52:08;;;;;;;8.48;5.95;;;;;;;26.57;46.46;94504.00;5054168;28;20043;-55
2022/08/20 01:54:34;;;;;;;9.88;5.60;;;;;;;26.43;46.94;94517.06;5028618;28;20454;-55
2022/08/20 01:57:11;;;;;;;7.22;5.35;;;;;;;26.46;47.21;94510.53;5038135;28;20063;-54
2022/08/20 01:59:36;;;;;;;7.38;6.07;;;;;;;26.31;46.50;94487.81;5027363;28;20316;-55
2022/08/20 02:02:02;;;;;;;8.23;5.30;;;;;;;26.60;46.38;94522.81;5062746;28;20422;-55
2022/08/20 02:04:27;;;;;;;7.53;5.13;;;;;;;26.48;46.87;94512.72;5063470;28;20068;-55
2022/08/20 02:06:55;;;;;;;10.02;5.88;;;;;;;26.57;46.76;94509.47;5044204;28;20020;-54
2022/08/20 02:09:21;;;;;;;8.25;5.43;;;;;;;26.42;46.67;94503.94;5045425;28;20556;-55
2022/08/20 02:11:47;;;;;;;7.32;5.40;;;;;;;26.09;46.97;94471.97;5062318;28;20044;-56
2022/08/20 02:14:12;;;;;;;9.35;5.80;;;;;;;26.30;47.73;94513.72;5044477;28;20049;-55
2022/08/20 02:16:40;;;;;;;6.63;5.20;;;;;;;26.47;46.90;94517.47;5054113;28;20055;-55
2022/08/20 02:19:11;;;;;;;5.80;5.20;;;;;;;26.40;47.02;94509.22;5063146;28;20040;-54
2022/08/20 02:21:40;;;;;;;6.80;5.55;;;;;;;26.26;47.39;94510.56;5034908;28;20503;-55
2022/08/20 02:24:06;;;;;;;8.93;5.30;;;;;;;26.17;47.40;94493.91;5028015;28;20119;-54
2022/08/20 02:26:31;;;;;;;8.65;5.47;;;;;;;25.88;47.52;94452.16;5061893;28;20050;-55
2022/08/20 02:28:58;;;;;;;7.53;5.15;;;;;;;26.18;47.08;94496.13;5050126;28;20075;-55
2022/08/20 02:31:23;;;;;;;9.30;6.00;;;;;;;26.16;47.71;94487.72;5061863;28;20041;-54
2022/08/20 02:33:49;;;;;;;7.88;5.22;;;;;;;26.23;47.72;94513.66;5044487;28;20498;-55
2022/08/20 02:36:16;;;;;;;6.75;5.50;;;;;;;26.37;47.27;94510.31;5059430;28;20139;-55
2022/08/20 02:38:42;;;;;;;9.35;5.60;;;;;;;25.94;47.36;94449.28;5036603;28;20025;-55
2022/08/20 02:41:07;;;;;;;8.93;5.28;;;;;;;26.33;47.95;94507.16;5062720;28;20082;-55
2022/08/20 02:43:33;;;;;;;8.45;5.97;;;;;;;26.24;47.55;94493.22;5055924;28;20047;-55
2022/08/20 02:45:59;;;;;;;8.15;5.30;;;;;;;26.30;47.76;94513.72;5061396;28;20055;-54
2022/08/20 02:48:25;;;;;;;7.72;6.00;;;;;;;25.59;47.31;94402.72;5062813;28;20016;-56
2022/08/20 02:50:52;;;;;;;8.10;6.00;;;;;;;26.43;47.64;94519.09;5061937;28;20055;-56
2022/08/20 02:53:18;;;;;;;7.28;5.65;;;;;;;26.38;47.57;94509.00;5061794;28;20491;-55
2022/08/20 02:55:43;;;;;;;9.25;6.10;;;;;;;26.08;48.42;94525.25;5038006;28;20041;-55
2022/08/20 02:58:10;;;;;;;7.65;5.78;;;;;;;25.56;48.19;94431.16;5061635;28;20079;-55
2022/08/20 03:00:35;;;;;;;9.48;6.07;;;;;;;26.07;47.99;94518.31;5062331;28;20351;-54
2022/08/20 03:03:01;;;;;;;8.20;5.78;;;;;;;26.15;47.94;94519.09;5060996;28;20428;-55
2022/08/20 03:05:27;;;;;;;8.68;5.97;;;;;;;26.03;48.59;94523.41;5062483;28;20036;-55
2022/08/20 03:07:52;;;;;;;9.80;5.85;;;;;;;25.90;48.68;94515.31;5042995;28;20114;-55
2022/08/20 03:10:25;;;;;;;9.82;5.60;;;;;;;26.01;48.83;94508.81;5061846;28;20051;-55
2022/08/20 03:12:51;;;;;;;8.10;5.72;;;;;;;25.84;49.04;94538.59;5042731;28;20744;-56
2022/08/20 03:15:17;;;;;;;9.02;6.28;;;;;;;25.75;49.31;94525.41;5043822;28;20021;-55
2022/08/20 03:17:42;;;;;;;6.88;5.47;;;;;;;25.58;49.82;94519.59;5060723;28;20025;-55
2022/08/20 03:20:08;;;;;;;7.82;5.90;;;;;;;25.61;49.64;94512.34;5062445;28;20040;-55
2022/08/20 03:22:34;;;;;;;7.43;5.68;;;;;;;25.77;49.64;94535.81;5060897;28;20044;-54
2022/08/20 03:25:00;;;;;;;7.65;6.00;;;;;;;25.82;49.32;94525.44;5061840;28;20679;-55
2022/08/20 03:27:25;;;;;;;7.65;6.13;;;;;;;25.98;49.00;94543.44;5060990;28;20040;-55
2022/08/20 03:29:51;;;;;;;6.43;5.43;;;;;;;25.98;48.62;94543.44;5061798;28;20060;-55
2022/08/20 03:32:16;;;;;;;9.05;6.47;;;;;;;25.68;49.50;94547.22;5059504;28;20081;-55
2022/08/20 03:34:42;;;;;;;8.30;5.82;;;;;;;25.78;49.26;94545.47;5061789;28;20040;-56
2022/08/20 03:37:08;;;;;;;9.68;6.60;;;;;;;25.00;49.20;94416.72;5060348;28;20077;-55
2022/08/20 03:39:34;;;;;;;9.23;5.88;;;;;;;25.82;48.88;94536.41;5058080;28;20024;-55
2022/08/20 03:41:59;;;;;;;7.03;5.90;;;;;;;25.42;49.10;94492.66;5061050;28;20880;-55
2022/08/20 03:44:25;;;;;;;8.90;6.10;;;;;;;25.91;48.75;94552.31;5061247;28;20045;-55
2022/08/20 03:46:51;;;;;;;8.48;5.53;;;;;;;25.54;49.69;94543.06;5051738;28;20028;-54
2022/08/20 03:49:16;;;;;;;7.63;5.70;;;;;;;25.58;49.50;94532.53;5061397;28;20048;-55
2022/08/20 05:42:40;;;;;;;12.90;6.97;;;;;;;26.88;49.74;94534.41;4929570;28;20059;-55
2022/08/20 05:45:06;;;;;;;9.95;6.95;;;;;;;26.97;49.27;94539.41;5061259;28;20067;-55
2022/08/20 05:47:31;;;;;;;9.88;7.20;;;;;;;27.21;48.95;94549.88;5061214;28;20045;-56
2022/08/20 05:49:57;;;;;;;8.52;6.93;;;;;;;27.07;49.48;94556.03;5045710;28;20427;-55
2022/08/20 05:52:22;;;;;;;9.40;7.20;;;;;;;27.13;49.47;94562.84;5063622;28;20037;-54
2022/08/20 05:54:48;;;;;;;10.52;6.97;;;;;;;27.35;48.75;94556.66;5063294;28;20021;-56
2022/08/20 05:57:18;;;;;;;9.85;6.93;;;;;;;27.18;48.88;94531.78;5063619;28;20032;-55
2022/08/20 05:59:43;;;;;;;10.10;7.20;;;;;;;27.44;48.84;94556.88;5062885;28;20045;-54
2022/08/20 06:04:23;;;;;;;10.10;6.65;;;;;;;27.45;48.55;94527.41;5061024;28;20046;-55
2022/08/20 06:04:54;;;;;;;12.50;7.38;;;;;;;27.59;48.52;94539.69;5059328;28;20044;-55
2022/08/20 06:07:19;;;;;;;10.93;7.20;;;;;;;27.83;47.76;94537.88;5060411;28;20037;-55
2022/08/20 06:09:45;;;;;;;8.75;6.45;;;;;;;27.76;47.92;94544.09;5048721;28;20031;-55
2022/08/20 06:12:11;;;;;;;9.60;6.80;;;;;;;27.84;47.24;94546.84;5059356;28;20033;-55
2022/08/20 06:14:36;;;;;;;9.23;6.85;;;;;;;27.75;47.23;94537.13;5063300;28;20040;-55
2022/08/20 06:17:12;;;;;;;9.57;6.78;;;;;;;27.95;46.95;94538.97;5061432;28;20040;-55
2022/08/20 06:19:38;;;;;;;8.43;6.70;;;;;;;27.95;47.28;94535.47;5062607;28;20450;-55
2022/08/20 06:22:04;;;;;;;8.52;6.82;;;;;;;27.99;46.79;94547.56;5060375;28;20045;-55
2022/08/20 06:24:29;;;;;;;10.25;6.78;;;;;;;28.09;46.66;94548.50;5045486;28;20106;-55
2022/08/20 06:26:59;;;;;;;11.52;6.82;;;;;;;28.22;46.50;94556.53;5062980;28;20132;-55
2022/08/20 06:29:24;;;;;;;7.47;6.70;;;;;;;28.26;46.53;94554.13;5052511;28;20036;-55
2022/08/20 06:31:50;;;;;;;10.02;6.82;;;;;;;28.27;46.34;94552.84;5050855;28;20102;-55
2022/08/20 06:34:17;;;;;;;12.18;7.05;;;;;;;28.43;45.92;94541.28;5060178;28;20388;-54
2022/08/20 06:36:45;;;;;;;8.88;6.90;;;;;;;28.50;45.75;94539.78;5059153;28;20048;-55
2022/08/20 06:39:10;;;;;;;10.20;6.57;;;;;;;28.48;45.84;94539.63;5060967;28;20036;-56
2022/08/20 06:41:36;;;;;;;11.77;7.75;;;;;;;28.41;46.38;94523.88;5063904;28;20726;-56
2022/08/20 06:44:01;;;;;;;9.32;7.57;;;;;;;28.49;46.51;94547.31;5062758;28;20045;-56
2022/08/20 06:46:27;;;;;;;9.60;7.13;;;;;;;28.65;46.04;94548.72;5064416;28;20032;-55
2022/08/20 06:48:52;;;;;;;9.73;6.90;;;;;;;28.67;46.21;94534.44;5063674;28;20018;-55
2022/08/20 06:51:19;;;;;;;9.43;7.20;;;;;;;28.63;45.88;94531.31;5064554;28;20028;-56
2022/08/20 06:53:44;;;;;;;8.20;6.72;;;;;;;28.71;45.95;94545.78;5063063;28;20048;-55
2022/08/20 06:56:10;;;;;;;12.27;7.80;;;;;;;28.82;45.24;94535.84;5062943;28;20152;-55
2022/08/20 06:58:36;;;;;;;10.10;7.80;;;;;;;28.85;45.44;94529.25;5065127;28;20044;-55
2022/08/20 07:01:01;;;;;;;9.43;6.93;;;;;;;28.87;45.73;94532.16;5063759;28;20123;-55
2022/08/20 07:03:27;;;;;;;9.77;6.75;;;;;;;28.80;45.38;94504.69;5036727;28;20032;-55
2022/08/20 07:05:52;;;;;;;9.00;6.93;;;;;;;28.90;44.90;94513.81;5061511;28;20051;-55
2022/08/20 07:08:20;;;;;;;8.68;7.03;;;;;;;29.02;44.91;94526.56;5062078;28;20050;-55
2022/08/20 07:10:46;;;;;;;9.77;7.20;;;;;;;28.82;45.38;94502.13;5062615;28;20044;-55
2022/08/20 07:13:15;;;;;;;9.52;6.90;;;;;;;29.04;44.89;94513.00;5063396;28;20040;-55
2022/08/20 07:15:40;;;;;;;8.70;7.07;;;;;;;29.11;44.64;94517.72;5063074;28;20063;-58
2022/08/20 07:18:06;;;;;;;9.75;6.75;;;;;;;29.19;44.91;94512.91;5061464;28;20792;-54
2022/08/20 07:20:33;;;;;;;8.15;6.55;;;;;;;29.17;44.48;94513.47;5062153;28;20025;-56
2022/08/20 07:22:59;;;;;;;7.55;6.75;;;;;;;29.21;44.88;94513.09;5044068;28;20546;-55
2022/08/20 07:25:24;;;;;;;8.32;6.30;;;;;;;29.16;44.81;94497.53;5062425;28;20567;-55
2022/08/20 07:27:50;;;;;;;9.65;6.90;;;;;;;29.16;44.30;94491.28;5061011;28;20017;-56
2022/08/20 07:33:05;;;;;;;8.95;6.63;;;;;;;29.27;44.69;94502.63;5055432;28;20077;-56
2022/08/20 07:35:31;;;;;;;8.43;6.95;;;;;;;29.44;44.37;94505.44;5059287;28;20041;-56
2022/08/20 07:37:56;;;;;;;9.15;6.97;;;;;;;29.48;44.76;94511.28;5061560;28;20029;-55
2022/08/20 07:40:30;;;;;;;9.10;7.53;;;;;;;29.53;44.45;94513.06;5044196;28;20037;-55
2022/08/20 07:42:57;;;;;;;9.10;6.75;;;;;;;29.54;43.87;94514.53;5047529;28;20045;-55
2022/08/20 07:45:22;;;;;;;9.02;6.60;;;;;;;29.55;44.01;94510.47;5043024;28;20029;-58
2022/08/20 07:47:48;;;;;;;8.75;6.97;;;;;;;29.60;44.16;94512.31;5050636;28;20495;-54
2022/08/20 07:50:18;;;;;;;9.13;6.93;;;;;;;29.59;44.24;94510.81;5041380;28;20037;-56
2022/08/20 07:52:44;;;;;;;8.52;7.53;;;;;;;29.67;43.44;94512.97;5041332;28;20505;-55
2022/08/20 07:55:11;;;;;;;7.80;7.00;;;;;;;29.61;43.96;94506.22;5042288;28;20041;-55
2022/08/20 07:57:36;;;;;;;8.30;7.03;;;;;;;29.69;43.68;94504.84;5042292;28;20123;-55
2022/08/20 08:00:07;;;;;;;9.13;6.78;;;;;;;29.60;44.30;94495.78;5041717;28;20492;-55
2022/08/20 08:02:33;;;;;;;7.80;7.03;;;;;;;29.79;43.85;94502.97;5040822;28;20557;-56
2022/08/20 08:05:00;;;;;;;7.50;6.72;;;;;;;29.33;43.56;94439.88;5043045;28;20040;-55
2022/08/20 08:07:26;;;;;;;8.30;6.68;;;;;;;29.85;43.73;94506.22;5040316;28;20045;-56
2022/08/20 08:09:51;;;;;;;9.18;7.10;;;;;;;29.79;44.03;94508.47;5024311;28;20025;-55
2022/08/20 08:12:17;;;;;;;10.73;7.13;;;;;;;29.74;43.74;94495.63;5021045;28;20493;-57
2022/08/20 08:14:43;;;;;;;8.18;6.95;;;;;;;29.94;43.25;94508.34;5022141;28;20048;-57
2022/08/20 08:17:09;;;;;;;9.75;6.78;;;;;;;29.79;44.24;94497.47;5039687;28;20565;-55
2022/08/20 08:19:38;;;;;;;10.35;7.72;;;;;;;29.90;43.55;94502.50;5041556;28;20041;-55
2022/08/20 08:22:15;;;;;;;8.43;6.90;;;;;;;29.90;43.31;94480.47;5023018;28;20025;-55
2022/08/20 08:24:42;;;;;;;8.55;6.90;;;;;;;30.02;43.46;94494.50;5041882;28;20025;-56
2022/08/20 08:27:07;;;;;;;8.95;6.50;;;;;;;30.12;42.65;94496.06;5040484;28;20025;-55
2022/08/20 08:29:34;;;;;;;8.48;7.10;;;;;;;30.08;42.72;94470.94;5041986;28;20030;-55
2022/08/20 08:32:01;;;;;;;9.65;7.22;;;;;;;30.08;42.99;94490.22;5033110;28;20048;-56
2022/08/20 08:34:26;;;;;;;8.18;6.45;;;;;;;30.17;42.65;94480.59;5040847;28;20124;-55
2022/08/20 08:36:52;;;;;;;9.18;7.43;;;;;;;30.08;42.68;94479.19;5041463;28;20517;-56
2022/08/20 08:39:18;;;;;;;9.88;7.63;;;;;;;30.03;42.52;94466.41;5041445;28;20021;-55
2022/08/20 08:41:48;;;;;;;13.23;7.38;;;;;;;30.23;42.93;94479.75;5039803;28;20141;-55
2022/08/20 08:44:24;;;;;;;14.38;7.75;;;;;;;30.01;43.45;94474.47;5030390;28;20037;-55
2022/08/20 08:46:55;;;;;;;12.48;8.02;;;;;;;29.94;43.14;94453.28;5021755;28;20039;-57
2022/08/20 08:49:27;;;;;;;12.02;7.93;;;;;;;30.15;43.01;94472.88;5016353;28;20037;-55
2022/08/20 08:51:57;;;;;;;9.63;7.22;;;;;;;30.19;43.00;94467.69;5025710;28;20028;-55
2022/08/20 08:54:24;;;;;;;11.00;7.28;;;;;;;30.31;42.92;94452.13;5007038;28;20505;-55
2022/08/20 08:56:50;;;;;;;8.98;7.28;;;;;;;30.29;43.04;94443.69;5022167;28;20652;-55
2022/08/20 08:59:15;;;;;;;10.23;7.05;;;;;;;29.93;43.04;94393.97;5022380;28;20033;-55
2022/08/20 09:01:46;;;;;;;8.40;7.13;;;;;;;30.29;43.08;94438.19;5038628;28;20794;-57
2022/08/20 09:04:13;;;;;;;10.20;7.63;;;;;;;30.23;43.27;94437.72;5039451;28;20041;-55
2022/08/20 09:06:39;;;;;;;10.93;7.75;;;;;;;30.34;43.38;94440.00;5040109;28;20028;-55
2022/08/20 09:09:05;;;;;;;11.05;7.70;;;;;;;30.33;43.37;94441.28;5020609;28;20033;-55
2022/08/20 09:11:30;;;;;;;8.38;7.07;;;;;;;29.77;43.46;94372.66;5038305;28;20063;-55
2022/08/20 09:13:56;;;;;;;9.65;8.00;;;;;;;29.93;42.35;94446.28;5040454;28;20041;-56
2022/08/20 09:16:22;;;;;;;8.50;6.90;;;;;;;29.37;43.40;94404.41;5038953;28;20099;-55
2022/08/20 09:18:49;;;;;;;8.60;7.20;;;;;;;29.32;44.80;94444.63;5022852;28;20029;-57
2022/08/20 09:21:14;;;;;;;9.15;7.50;;;;;;;29.16;45.37;94450.75;5043621;28;20549;-55
2022/08/20 09:23:40;;;;;;;8.27;7.28;;;;;;;28.88;45.34;94445.66;5040891;28;20043;-55
2022/08/20 09:26:05;;;;;;;7.68;6.90;;;;;;;28.85;45.22;94457.75;5044010;28;20823;-56
2022/08/20 09:28:31;;;;;;;11.20;7.72;;;;;;;28.75;46.06;94442.44;5041218;28;20518;-55
2022/08/20 09:30:56;;;;;;;9.30;7.50;;;;;;;28.48;45.11;94419.47;5042319;28;20025;-55
2022/08/20 09:33:22;;;;;;;8.68;7.82;;;;;;;28.75;44.62;94432.16;5043575;28;20411;-54
2022/08/20 09:35:47;;;;;;;8.38;7.47;;;;;;;28.36;45.54;94437.63;5040574;28;20044;-55
2022/08/20 09:38:13;;;;;;;8.13;7.32;;;;;;;28.67;44.88;94425.25;5031230;28;20042;-55
2022/08/20 09:40:39;;;;;;;8.30;7.50;;;;;;;28.71;44.90;94427.59;5036612;28;20049;-56
2022/08/20 09:43:05;;;;;;;7.47;6.78;;;;;;;28.23;45.53;94423.41;5041885;28;20052;-57
2022/08/20 09:45:30;;;;;;;8.55;7.03;;;;;;;27.52;46.99;94386.81;5037095;28;20091;-56
2022/08/20 09:47:56;;;;;;;8.60;7.72;;;;;;;28.26;46.22;94433.28;5034652;28;20484;-55
2022/08/20 09:50:22;;;;;;;8.73;7.80;;;;;;;28.17;46.80;94431.13;5043580;28;20045;-55
2022/08/20 09:52:47;;;;;;;8.68;7.78;;;;;;;28.06;46.81;94428.75;5039408;28;20044;-55
2022/08/20 09:55:25;;;;;;;8.43;7.63;;;;;;;27.52;48.50;94411.50;5045371;28;20045;-55
2022/08/20 09:57:51;;;;;;;8.15;7.35;;;;;;;27.94;47.91;94416.72;5005984;28;20037;-55
2022/08/20 10:00:17;;;;;;;8.02;7.30;;;;;;;27.94;47.81;94419.47;5022369;28;20562;-55
2022/08/20 10:02:43;;;;;;;8.32;7.30;;;;;;;27.50;49.22;94428.53;5043449;28;20525;-56
2022/08/20 10:05:08;;;;;;;8.30;7.50;;;;;;;27.11;48.83;94354.28;5038962;28;20069;-56
2022/08/20 10:07:34;;;;;;;9.43;7.43;;;;;;;27.66;48.43;94429.22;5017203;28;20108;-56
2022/08/20 10:10:00;;;;;;;8.52;7.20;;;;;;;27.99;47.79;94429.50;5034473;28;20029;-58
2022/08/20 10:12:26;;;;;;;8.93;7.75;;;;;;;27.29;48.06;94355.91;5027054;28;20029;-56
2022/08/20 10:14:51;;;;;;;7.93;7.13;;;;;;;27.58;48.80;94429.25;5031708;28;20075;-56
2022/08/20 10:17:17;;;;;;;8.38;7.57;;;;;;;27.73;48.80;94422.97;5035662;28;20049;-55
2022/08/20 10:19:42;;;;;;;8.18;7.38;;;;;;;27.50;47.92;94350.97;5034723;28;20033;-56
2022/08/20 10:22:08;;;;;;;8.63;7.72;;;;;;;27.74;47.77;94398.47;5039892;28;20577;-56
2022/08/20 10:24:33;;;;;;;8.25;7.45;;;;;;;27.78;48.52;94420.78;5042577;28;20550;-57
2022/08/20 10:27:00;;;;;;;8.32;7.53;;;;;;;27.40;48.18;94352.81;5030246;28;20042;-56
2022/08/20 10:29:25;;;;;;;8.50;7.70;;;;;;;28.01;47.32;94409.75;5033904;28;20431;-58
2022/08/20 10:31:51;;;;;;;9.18;8.27;;;;;;;27.72;48.04;94388.63;5011164;28;20051;-55
2022/08/20 10:34:17;;;;;;;55.58;24.23;;;;;;;27.57;47.98;94399.63;5018598;28;20052;-56
2022/08/20 10:36:42;;;;;;;216.98;88.38;;;;;;;27.73;47.69;94387.31;5029086;28;20067;-59
2022/08/20 10:39:08;;;;;;;162.30;70.00;;;;;;;27.48;48.34;94386.44;5038970;28;20037;-56
2022/08/20 10:41:34;;;;;;;141.95;61.65;;;;;;;27.62;48.43;94368.50;5049998;28;20033;-56
2022/08/20 10:43:59;;;;;;;117.75;52.20;;;;;;;27.24;49.03;94378.78;5035125;28;20042;-56
2022/08/20 10:46:24;;;;;;;94.22;45.17;;;;;;;27.26;48.85;94376.97;5030806;28;20095;-55
2022/08/20 10:48:50;;;;;;;84.53;40.63;;;;;;;27.41;48.06;94355.00;5037742;28;20033;-56
2022/08/20 10:51:15;;;;;;;71.43;35.08;;;;;;;27.20;48.74;94370.19;5032009;28;20025;-56
2022/08/20 10:53:41;;;;;;;63.67;30.52;;;;;;;26.93;48.58;94325.25;5040172;28;20033;-55
2022/08/20 10:56:06;;;;;;;56.65;28.05;;;;;;;26.96;49.15;94380.97;5040454;28;20115;-56
2022/08/20 10:58:32;;;;;;;54.97;27.15;;;;;;;27.30;48.41;94365.63;5033642;28;20029;-57
2022/08/20 11:00:57;;;;;;;40.95;22.70;;;;;;;27.27;48.67;94345.50;5037426;28;20040;-56
2022/08/20 11:03:23;;;;;;;39.10;22.45;;;;;;;27.63;47.59;94364.50;5035508;28;20455;-57
2022/08/20 11:05:48;;;;;;;33.38;19.58;;;;;;;27.24;48.74;94354.09;5029161;28;20048;-56
2022/08/20 11:08:14;;;;;;;33.58;18.88;;;;;;;27.56;48.37;94365.94;5040288;28;20041;-55
2022/08/20 11:10:39;;;;;;;29.02;17.05;;;;;;;27.10;49.17;94369.31;5022184;28;20041;-58
2022/08/20 11:13:05;;;;;;;27.27;16.33;;;;;;;27.33;48.47;94370.72;5029729;28;20543;-56
2022/08/20 11:15:35;;;;;;;25.77;16.08;;;;;;;27.80;47.69;94387.28;5027704;28;20082;-56
2022/08/20 11:18:00;;;;;;;25.30;15.85;;;;;;;27.81;47.37;94375.75;5045257;28;20040;-56
2022/08/20 11:20:26;;;;;;;24.10;16.23;;;;;;;27.35;47.53;94307.09;5045385;28;20064;-56
2022/08/20 11:22:52;;;;;;;23.52;14.18;;;;;;;27.66;47.33;94368.88;5044746;28;20068;-57
2022/08/20 11:25:18;;;;;;;22.52;14.30;;;;;;;27.70;47.26;94363.72;5040864;28;20044;-60
2022/08/20 11:27:45;;;;;;;22.83;13.90;;;;;;;27.78;47.48;94343.94;5036884;28;20033;-57
2022/08/20 11:30:30;;;;;;;24.83;14.65;;;;;;;27.97;46.74;94368.94;5042160;28;20037;-56
2022/08/20 11:32:56;;;;;;;21.92;13.77;;;;;;;27.73;47.13;94357.13;5026762;28;20033;-56
2022/08/20 11:35:22;;;;;;;19.83;14.05;;;;;;;27.44;47.88;94344.94;5042344;28;20499;-56
2022/08/20 11:37:50;;;;;;;21.83;13.25;;;;;;;27.33;47.69;94285.00;5037632;28;20052;-58
2022/08/20 11:40:17;;;;;;;19.00;12.68;;;;;;;27.68;47.54;94333.38;5045197;28;20507;-56
2022/08/20 11:42:43;;;;;;;18.20;12.82;;;;;;;27.75;46.30;94306.63;5045580;28;20053;-57
2022/08/20 11:45:09;;;;;;;19.98;13.50;;;;;;;27.59;47.35;94320.22;5044751;28;20045;-56
2022/08/20 11:47:36;;;;;;;20.42;13.32;;;;;;;27.35;46.83;94290.66;5043186;28;20045;-56
2022/08/20 11:50:05;;;;;;;17.70;12.60;;;;;;;27.34;47.75;94294.69;5043650;28;20075;-56
2022/08/20 11:52:30;;;;;;;17.17;13.10;;;;;;;27.46;47.93;94331.41;5046120;28;20098;-57
2022/08/20 11:54:56;;;;;;;16.63;11.93;;;;;;;27.79;47.18;94339.91;5048509;28;20029;-58
2022/08/20 11:57:23;;;;;;;18.00;12.48;;;;;;;27.71;47.26;94329.53;5044728;28;20032;-57
2022/08/20 11:59:52;;;;;;;18.55;12.18;;;;;;;27.61;46.59;94323.16;5029294;28;20040;-57
2022/08/20 12:02:18;;;;;;;17.05;11.82;;;;;;;27.33;47.19;94315.88;5026735;28;20586;-56
2022/08/20 12:04:43;;;;;;;16.10;11.88;;;;;;;27.49;46.93;94338.53;5047052;28;20059;-56
2022/08/20 12:07:10;;;;;;;17.55;12.13;;;;;;;27.44;47.54;94321.00;5039537;28;20041;-55
2022/08/20 12:09:35;;;;;;;17.67;12.15;;;;;;;27.31;47.67;94312.25;5042253;28;20036;-57
2022/08/20 12:12:01;;;;;;;16.88;12.60;;;;;;;27.10;47.96;94335.66;5032697;28;20044;-55
2022/08/20 12:14:26;;;;;;;15.68;11.70;;;;;;;27.29;47.72;94334.00;5040511;28;20060;-56
2022/08/20 12:16:51;;;;;;;16.92;11.90;;;;;;;27.30;47.27;94333.44;5040121;28;20037;-57
2022/08/20 12:19:17;;;;;;;16.40;11.68;;;;;;;27.24;47.63;94324.66;5043971;28;20048;-56
2022/08/20 12:21:43;;;;;;;14.90;11.32;;;;;;;27.12;47.48;94336.56;5045215;28;20020;-56
2022/08/20 12:24:08;;;;;;;15.63;12.13;;;;;;;27.33;47.11;94348.06;5041574;28;20127;-56
2022/08/20 12:26:34;;;;;;;15.05;11.60;;;;;;;27.35;46.75;94350.97;5039036;28;20045;-55
2022/08/20 12:28:59;;;;;;;15.95;11.77;;;;;;;27.31;46.91;94339.66;5042103;28;20044;-58
2022/08/20 12:31:25;;;;;;;15.52;11.63;;;;;;;26.45;47.47;94245.44;5040465;28;20036;-56
2022/08/20 12:33:50;;;;;;;18.63;12.15;;;;;;;26.72;47.55;94291.09;5042913;28;20466;-55
2022/08/20 12:36:16;;;;;;;16.23;11.27;;;;;;;27.01;47.39;94333.47;5041136;28;20040;-55
2022/08/20 12:38:41;;;;;;;14.93;11.02;;;;;;;26.95;49.12;94333.66;5036946;28;20594;-56
2022/08/20 12:41:07;;;;;;;14.68;10.82;;;;;;;27.52;48.96;94381.31;5032632;28;20059;-56
2022/08/20 12:43:32;;;;;;;17.33;12.35;;;;;;;27.49;50.02;94383.16;5040163;28;20041;-54
2022/08/20 12:45:58;;;;;;;16.83;11.38;;;;;;;27.55;50.70;94380.22;5035154;28;20044;-55
2022/08/20 12:48:23;;;;;;;16.17;11.25;;;;;;;27.73;50.25;94390.06;5031913;28;20031;-54
2022/08/20 12:50:49;;;;;;;13.95;11.13;;;;;;;27.75;50.69;94388.94;5034942;28;20047;-54
2022/08/20 12:53:15;;;;;;;14.88;11.02;;;;;;;27.75;51.07;94377.97;5034366;28;20356;-54
2022/08/20 12:55:40;;;;;;;14.85;11.88;;;;;;;27.80;50.24;94363.34;5037683;28;20045;-54
2022/08/20 12:58:07;;;;;;;14.38;10.73;;;;;;;27.87;50.47;94367.34;5043940;28;20048;-56
2022/08/20 13:00:37;;;;;;;15.90;10.80;;;;;;;27.96;49.96;94362.00;5048953;28;20031;-54
2022/08/20 13:03:04;;;;;;;15.50;10.32;;;;;;;27.88;50.38;94342.06;5037715;28;20041;-54
2022/08/20 13:05:30;;;;;;;13.90;10.38;;;;;;;28.07;50.09;94347.13;5022233;28;20545;-54
2022/08/20 13:07:55;;;;;;;15.05;10.90;;;;;;;28.11;49.84;94337.25;5045172;28;20044;-55
2022/08/20 13:10:23;;;;;;;14.50;10.23;;;;;;;28.19;48.91;94326.97;5043694;28;20045;-55
2022/08/20 13:12:49;;;;;;;14.23;10.55;;;;;;;28.17;49.44;94315.78;5020988;28;20025;-56
2022/08/20 13:15:14;;;;;;;14.50;10.40;;;;;;;28.04;48.76;94283.09;5033292;28;20033;-55
2022/08/20 13:17:40;;;;;;;13.63;10.43;;;;;;;28.00;48.56;94276.53;5032159;28;20034;-55
2022/08/20 13:20:08;;;;;;;13.90;10.02;;;;;;;28.17;48.22;94307.56;5027231;28;20073;-54
2022/08/20 13:22:34;;;;;;;13.52;10.15;;;;;;;28.08;48.85;94321.84;5016451;28;20053;-55